createdAt,value
2022-10-08T00:01:37.431Z,100538.66
2022-10-08T00:04:10.873Z,100535.20
2022-10-08T00:06:43.011Z,100540.50
2022-10-08T00:09:15.154Z,100528.31
2022-10-08T00:11:47.043Z,100530.74
2022-10-08T00:14:19.263Z,100537.58
2022-10-08T00:16:51.417Z,100531.02
2022-10-08T00:19:23.478Z,100539.55
2022-10-08T00:21:57.273Z,100533.11
2022-10-08T00:24:29.225Z,100543.38
2022-10-08T00:27:01.246Z,100536.84
2022-10-08T00:29:33.526Z,100542.69
2022-10-08T00:32:07.202Z,100535.45
2022-10-08T00:34:39.962Z,100536.95
2022-10-08T00:37:12.284Z,100535.84
2022-10-08T00:39:44.598Z,100535.61
2022-10-08T00:42:16.519Z,100531.87
2022-10-08T00:44:56.058Z,100527.12
2022-10-08T00:47:37.356Z,100529.45
2022-10-08T00:50:35.672Z,100530.97
2022-10-08T00:53:10.582Z,100530.62
2022-10-08T00:55:44.192Z,100533.97
2022-10-08T00:58:19.597Z,100541.61
2022-10-08T01:00:52.186Z,100537.98
2022-10-08T01:03:24.813Z,100540.61
2022-10-08T01:06:08.976Z,100543.19
2022-10-08T01:08:58.602Z,100540.55
2022-10-08T01:11:48.322Z,100542.13
2022-10-08T01:14:32.279Z,100537.70
2022-10-08T01:17:19.155Z,100538.57
2022-10-08T01:20:18.398Z,100540.20
2022-10-08T01:22:58.920Z,100535.81
2022-10-08T01:25:39.898Z,100533.19
2022-10-08T01:28:31.581Z,100530.69
2022-10-08T01:31:09.744Z,100533.38
2022-10-08T01:33:44.790Z,100533.31
2022-10-08T01:36:19.240Z,100533.95
2022-10-08T01:38:57.053Z,100535.66
2022-10-08T01:41:31.306Z,100543.36
2022-10-08T01:44:33.792Z,100539.80
2022-10-08T01:47:08.674Z,100531.02
2022-10-08T01:49:46.591Z,100541.53
2022-10-08T01:52:21.752Z,100538.04
2022-10-08T01:55:02.725Z,100536.34
2022-10-08T01:57:36.793Z,100534.41
2022-10-08T02:00:12.243Z,100533.30
2022-10-08T02:02:50.754Z,100532.49
2022-10-08T02:05:25.978Z,100531.72
2022-10-08T02:07:58.129Z,100528.39
2022-10-08T02:10:30.016Z,100539.95
2022-10-08T02:13:02.174Z,100543.64
2022-10-08T02:15:43.055Z,100543.77
2022-10-08T02:18:20.631Z,100540.33
2022-10-08T02:21:12.171Z,100541.48
2022-10-08T02:23:47.325Z,100544.17
2022-10-08T02:26:22.142Z,100553.88
2022-10-08T02:29:02.784Z,100551.25
2022-10-08T02:31:41.072Z,100555.52
2022-10-08T02:34:35.485Z,100556.32
2022-10-08T02:37:15.006Z,100560.53
2022-10-08T02:39:49.407Z,100557.95
2022-10-08T02:42:24.525Z,100551.43
2022-10-08T02:44:59.580Z,100548.90
2022-10-08T02:47:36.019Z,100549.95
2022-10-08T02:50:14.034Z,100548.09
2022-10-08T02:52:49.114Z,100557.55
2022-10-08T02:55:42.231Z,100555.86
2022-10-08T02:58:14.629Z,100554.92
2022-10-08T03:00:58.661Z,100556.63
2022-10-08T03:03:36.967Z,100546.79
2022-10-08T03:06:11.917Z,100546.79
2022-10-08T03:08:46.867Z,100550.19
2022-10-08T03:11:18.869Z,100551.12
2022-10-08T03:13:51.965Z,100544.93
2022-10-08T03:16:26.907Z,100545.80
2022-10-08T03:19:00.513Z,100528.45
2022-10-08T03:21:33.518Z,100532.84
2022-10-08T03:24:05.834Z,100538.16
2022-10-08T03:26:38.338Z,100540.73
2022-10-08T03:29:11.299Z,100544.93
2022-10-08T03:31:43.376Z,100542.23
2022-10-08T03:34:15.617Z,100536.85
2022-10-08T03:36:47.658Z,100549.91
2022-10-08T03:39:19.726Z,100542.82
2022-10-08T03:41:51.634Z,100544.39
2022-10-08T03:44:23.715Z,100544.39
2022-10-08T03:46:55.702Z,100543.39
2022-10-08T03:49:27.632Z,100545.09
2022-10-08T03:51:59.872Z,100541.63
2022-10-08T03:54:32.108Z,100540.70
2022-10-08T03:57:04.967Z,100549.36
2022-10-08T03:59:36.982Z,100545.84
2022-10-08T04:02:09.090Z,100542.27
2022-10-08T04:04:41.079Z,100553.50
2022-10-08T04:07:13.051Z,100545.55
2022-10-08T04:09:45.037Z,100540.98
2022-10-08T04:12:17.045Z,100546.98
2022-10-08T04:14:49.020Z,100547.78
2022-10-08T04:17:21.021Z,100542.39
2022-10-08T04:19:52.964Z,100546.59
2022-10-08T04:22:24.998Z,100543.03
2022-10-08T04:24:56.901Z,100554.35
2022-10-08T04:27:28.941Z,100545.47
2022-10-08T04:30:01.462Z,100549.73
2022-10-08T04:32:33.499Z,100549.66
2022-10-08T04:35:05.926Z,100546.03
2022-10-08T04:37:37.981Z,100550.23
2022-10-08T04:40:10.771Z,100554.42
2022-10-08T04:42:42.879Z,100551.66
2022-10-08T04:45:15.159Z,100558.48
2022-10-08T04:47:47.223Z,100559.95
2022-10-08T04:50:19.266Z,100555.55
2022-10-08T04:52:51.811Z,100557.12
2022-10-08T04:55:24.852Z,100565.81
2022-10-08T04:57:57.135Z,100564.64
2022-10-08T05:00:29.228Z,100563.51
2022-10-08T05:03:01.188Z,100556.17
2022-10-08T05:05:33.422Z,100575.16
2022-10-08T05:08:05.470Z,100572.31
2022-10-08T05:10:37.855Z,100567.75
2022-10-08T05:13:10.471Z,100572.01
2022-10-08T05:15:43.555Z,100576.30
2022-10-08T05:18:15.948Z,100570.17
2022-10-08T05:20:47.907Z,100563.13
2022-10-08T05:23:20.251Z,100576.20
2022-10-08T05:25:52.330Z,100574.36
2022-10-08T05:28:24.469Z,100571.59
2022-10-08T05:31:01.437Z,100586.39
2022-10-08T05:33:33.612Z,100582.82
2022-10-08T05:36:08.751Z,100585.38
2022-10-08T05:38:39.926Z,100577.23
2022-10-08T05:41:16.888Z,100589.38
2022-10-08T05:43:49.433Z,100589.05
2022-10-08T05:46:22.160Z,100584.54
2022-10-08T05:48:59.368Z,100582.70
2022-10-08T05:51:32.476Z,100584.33
2022-10-08T05:54:04.453Z,100584.11
2022-10-08T05:56:36.528Z,100580.47
2022-10-08T05:59:08.499Z,100587.30
2022-10-08T06:01:40.618Z,100585.41
2022-10-08T06:04:13.637Z,100590.47
2022-10-08T06:06:46.461Z,100584.15
2022-10-08T06:09:22.156Z,100581.26
2022-10-08T06:11:54.317Z,100579.95
2022-10-08T06:14:27.080Z,100573.37
2022-10-08T06:16:59.281Z,100581.56
2022-10-08T06:19:32.918Z,100582.63
2022-10-08T06:22:05.883Z,100580.05
2022-10-08T06:24:38.105Z,100571.56
2022-10-08T06:27:10.361Z,100581.27
2022-10-08T06:29:42.537Z,100585.06
2022-10-08T06:32:14.523Z,100586.25
2022-10-08T06:34:46.660Z,100588.38
2022-10-08T06:37:18.774Z,100586.20
2022-10-08T06:39:51.143Z,100587.50
2022-10-08T06:42:23.210Z,100580.40
2022-10-08T06:44:58.761Z,100591.59
2022-10-08T06:47:29.827Z,100584.25
2022-10-08T06:50:01.968Z,100581.58
2022-10-08T06:52:34.443Z,100584.02
2022-10-08T06:55:07.153Z,100585.96
2022-10-08T06:57:40.522Z,100575.78
2022-10-08T07:00:13.669Z,100585.48
2022-10-08T07:02:46.160Z,100579.06
2022-10-08T07:05:18.490Z,100572.73
2022-10-08T07:07:50.504Z,100571.03
2022-10-08T07:10:22.635Z,100572.55
2022-10-08T07:12:54.879Z,100574.38
2022-10-08T07:15:26.834Z,100570.16
2022-10-08T07:17:59.190Z,100567.81
2022-10-08T07:20:31.266Z,100569.12
2022-10-08T07:23:03.312Z,100562.78
2022-10-08T07:25:35.477Z,100563.46
2022-10-08T07:28:07.771Z,100566.67
2022-10-08T07:30:40.106Z,100568.65
2022-10-08T07:33:11.977Z,100565.33
2022-10-08T07:35:44.583Z,100556.23
2022-10-08T07:38:20.159Z,100552.63
2022-10-08T07:40:55.190Z,100537.05
2022-10-08T07:43:27.110Z,100537.05
2022-10-08T07:45:59.130Z,100551.89
2022-10-08T07:48:34.211Z,100547.05
2022-10-08T07:51:20.305Z,100552.57
2022-10-08T07:53:52.664Z,100554.76
2022-10-08T07:56:26.083Z,100551.52
2022-10-08T07:59:00.274Z,100547.48
2022-10-08T08:01:33.444Z,100549.27
2022-10-08T08:04:08.268Z,100541.23
2022-10-08T08:06:43.387Z,100546.13
2022-10-08T08:09:16.460Z,100545.77
2022-10-08T08:11:50.131Z,100542.53
2022-10-08T08:14:22.302Z,100536.36
2022-10-08T08:16:54.294Z,100511.67
2022-10-08T08:19:27.584Z,100511.67
2022-10-08T08:21:59.777Z,100530.89
2022-10-08T08:24:32.467Z,100525.11
2022-10-08T08:27:04.726Z,100525.55
2022-10-08T08:29:37.119Z,100527.56
2022-10-08T08:32:09.542Z,100522.34
2022-10-08T08:34:41.618Z,100523.52
2022-10-08T08:37:13.529Z,100533.83
2022-10-08T08:39:45.665Z,100522.06
2022-10-08T08:42:35.683Z,100522.99
2022-10-08T08:45:34.237Z,100505.30
2022-10-08T08:47:50.310Z,100505.30
2022-10-08T08:50:28.667Z,100510.73
2022-10-08T08:53:02.349Z,100510.53
2022-10-08T08:55:42.723Z,100488.31
2022-10-08T08:58:17.815Z,100498.94
2022-10-08T09:00:53.170Z,100498.94
2022-10-08T09:03:35.178Z,100498.53
2022-10-08T09:06:10.507Z,100490.23
2022-10-08T09:08:51.570Z,100491.95
2022-10-08T09:11:25.417Z,100499.36
2022-10-08T09:14:14.816Z,100492.56
2022-10-08T09:16:47.230Z,100492.90
2022-10-08T09:19:19.389Z,100484.94
2022-10-08T09:21:51.501Z,100489.18
2022-10-08T09:24:24.003Z,100477.50
2022-10-08T09:26:56.897Z,100477.37
2022-10-08T09:29:34.966Z,100474.20
2022-10-08T09:32:07.589Z,100461.13
2022-10-08T09:34:39.831Z,100469.53
2022-10-08T09:37:26.365Z,100451.06
2022-10-08T09:40:10.425Z,100475.57
2022-10-08T09:42:42.460Z,100463.03
2022-10-08T09:45:41.406Z,100466.84
2022-10-08T09:48:22.942Z,100461.55
2022-10-08T09:51:07.112Z,100452.00
2022-10-08T09:53:48.438Z,100446.03
2022-10-08T09:56:28.088Z,100453.98
2022-10-08T09:59:06.346Z,100448.28
2022-10-08T10:01:41.368Z,100445.00
2022-10-08T10:04:23.166Z,100443.38
2022-10-08T10:06:56.133Z,100432.90
2022-10-08T10:09:37.677Z,100432.03
2022-10-08T10:12:22.744Z,100418.02
2022-10-08T10:15:01.107Z,100407.14
2022-10-08T10:17:43.445Z,100414.99
2022-10-08T10:20:18.768Z,100422.31
2022-10-08T10:22:59.782Z,100422.51
2022-10-08T10:25:49.326Z,100406.27
2022-10-08T10:28:36.127Z,100405.20
2022-10-08T10:31:11.206Z,100386.55
2022-10-08T10:33:55.000Z,100399.55
2022-10-08T10:36:29.917Z,100401.58
2022-10-08T10:39:25.505Z,100379.00
2022-10-08T10:42:03.779Z,100384.94
2022-10-08T10:44:56.727Z,100381.45
2022-10-08T10:47:32.977Z,100370.28
2022-10-08T10:50:05.271Z,100375.19
2022-10-08T10:52:49.629Z,100369.77
2022-10-08T10:55:31.422Z,100365.84
2022-10-08T10:58:28.791Z,100364.62
2022-10-08T11:01:26.167Z,100363.05
2022-10-08T11:04:06.993Z,100360.95
2022-10-08T11:07:02.943Z,100353.20
2022-10-08T11:09:53.780Z,100361.37
2022-10-08T11:12:37.706Z,100357.98
2022-10-08T11:15:27.228Z,100361.50
2022-10-08T11:18:13.914Z,100350.57
2022-10-08T11:20:57.594Z,100352.05
2022-10-08T11:23:53.282Z,100349.39
2022-10-08T11:26:34.457Z,100354.93
2022-10-08T11:29:25.580Z,100341.87
2022-10-08T11:31:59.034Z,100341.45
2022-10-08T11:34:42.367Z,100329.26
2022-10-08T11:37:23.121Z,100300.91
2022-10-08T11:40:17.436Z,100300.91
2022-10-08T11:42:55.860Z,100317.80
2022-10-08T11:45:31.497Z,100328.30
2022-10-08T11:48:23.115Z,100316.62
2022-10-08T11:50:55.001Z,100314.28
2022-10-08T11:53:27.704Z,100307.28
2022-10-08T11:56:01.054Z,100272.70
2022-10-08T11:58:35.556Z,100272.70
2022-10-08T12:01:10.187Z,100281.94
2022-10-08T12:03:42.884Z,100282.36
2022-10-08T12:06:26.771Z,100293.70
2022-10-08T12:09:00.612Z,100258.08
2022-10-08T12:11:38.452Z,100280.13
2022-10-08T12:14:17.236Z,100278.85
2022-10-08T12:16:57.936Z,100291.59
2022-10-08T12:19:38.885Z,100278.85
2022-10-08T12:22:21.309Z,100282.77
2022-10-08T12:24:57.869Z,100277.98
2022-10-08T12:27:32.380Z,100274.21
2022-10-08T12:30:18.073Z,100275.38
2022-10-08T12:32:53.000Z,100267.45
2022-10-08T12:35:31.725Z,100265.40
2022-10-08T12:38:24.958Z,100252.95
2022-10-08T12:41:05.809Z,100251.13
2022-10-08T12:44:04.794Z,100245.52
2022-10-08T12:46:45.832Z,100240.76
2022-10-08T12:49:22.764Z,100225.22
2022-10-08T12:51:57.706Z,100238.09
2022-10-08T12:54:31.788Z,100220.94
2022-10-08T12:57:06.906Z,100229.45
2022-10-08T12:59:42.152Z,100226.77
2022-10-08T13:02:29.215Z,100229.70
2022-10-08T13:05:01.510Z,100217.77
2022-10-08T13:07:35.320Z,100211.25
2022-10-08T13:10:10.370Z,100205.11
2022-10-08T13:12:44.022Z,100219.79
2022-10-08T13:15:26.236Z,100206.84
2022-10-08T13:17:58.406Z,100202.17
2022-10-08T13:20:31.135Z,100202.22
2022-10-08T13:23:06.056Z,100207.20
2022-10-08T13:25:41.328Z,100199.60
2022-10-08T13:28:16.691Z,100207.45
2022-10-08T13:30:50.130Z,100197.27
2022-10-08T13:33:25.221Z,100194.22
2022-10-08T13:36:00.396Z,100192.30
2022-10-08T13:38:35.332Z,100180.35
2022-10-08T13:41:09.779Z,100184.26
2022-10-08T13:43:42.015Z,100187.69
2022-10-08T13:46:14.199Z,100191.38
2022-10-08T13:48:46.558Z,100203.13
2022-10-08T13:51:19.079Z,100196.00
2022-10-08T13:53:56.864Z,100203.55
2022-10-08T13:56:26.429Z,100197.21
2022-10-08T13:58:59.168Z,100205.39
2022-10-08T14:01:31.547Z,100204.13
2022-10-08T14:04:03.581Z,100192.25
2022-10-08T14:06:35.816Z,100187.55
2022-10-08T14:09:10.413Z,100187.49
2022-10-08T14:11:43.722Z,100188.40
2022-10-08T14:14:16.551Z,100183.27
2022-10-08T14:16:49.953Z,100182.23
2022-10-08T14:19:22.736Z,100181.33
2022-10-08T14:21:57.795Z,100186.69
2022-10-08T14:24:30.168Z,100184.36
2022-10-08T14:27:07.455Z,100192.33
2022-10-08T14:29:37.127Z,100184.72
2022-10-08T14:32:10.646Z,100178.45
2022-10-08T14:34:42.923Z,100175.19
2022-10-08T14:37:15.205Z,100178.88
2022-10-08T14:39:47.623Z,100174.75
2022-10-08T14:42:19.612Z,100173.03
2022-10-08T14:44:53.358Z,100174.72
2022-10-08T14:47:26.228Z,100171.92
2022-10-08T14:49:58.696Z,100167.61
2022-10-08T14:52:31.101Z,100167.61
2022-10-08T14:55:03.325Z,100167.49
2022-10-08T14:57:35.930Z,100170.84
2022-10-08T15:00:09.000Z,100168.90
2022-10-08T15:02:41.318Z,100162.13
2022-10-08T15:05:13.655Z,100172.16
2022-10-08T15:07:46.581Z,100170.23
2022-10-08T15:10:19.306Z,100169.96
2022-10-08T15:12:51.875Z,100169.96
2022-10-08T15:15:24.198Z,100169.41
2022-10-08T15:17:56.878Z,100167.49
2022-10-08T15:20:28.769Z,100167.49
2022-10-08T15:23:00.870Z,100181.06
2022-10-08T15:25:33.205Z,100178.98
2022-10-08T15:28:05.603Z,100166.14
2022-10-08T15:30:37.574Z,100160.30
2022-10-08T15:33:11.024Z,100168.42
2022-10-08T15:35:43.626Z,100162.37
2022-10-08T15:38:16.088Z,100172.20
2022-10-08T15:40:48.887Z,100166.14
2022-10-08T15:43:21.171Z,100165.58
2022-10-08T15:45:53.358Z,100167.73
2022-10-08T15:48:25.835Z,100157.09
2022-10-08T15:51:01.220Z,100154.45
2022-10-08T15:53:39.682Z,100155.37
2022-10-08T15:56:12.373Z,100152.94
2022-10-08T15:58:52.166Z,100155.67
2022-10-08T16:01:20.331Z,100153.20
2022-10-08T16:03:55.143Z,100157.62
2022-10-08T16:06:30.207Z,100159.43
2022-10-08T16:09:03.240Z,100152.25
2022-10-08T16:11:36.837Z,100145.02
2022-10-08T16:14:14.764Z,100152.20
2022-10-08T16:16:47.700Z,100150.13
2022-10-08T16:19:22.504Z,100152.94
2022-10-08T16:21:56.729Z,100148.25
2022-10-08T16:24:28.199Z,100142.11
2022-10-08T16:26:59.945Z,100162.20
2022-10-08T16:29:32.838Z,100150.59
2022-10-08T16:32:05.131Z,100156.42
2022-10-08T16:34:37.671Z,100157.20
2022-10-08T16:37:09.814Z,100151.05
2022-10-08T16:39:42.283Z,100141.44
2022-10-08T16:42:14.606Z,100154.83
2022-10-08T16:44:46.871Z,100145.39
2022-10-08T16:47:19.303Z,100144.93
2022-10-08T16:49:51.576Z,100140.12
2022-10-08T16:52:24.305Z,100146.27
2022-10-08T16:54:57.404Z,100141.34
2022-10-08T16:57:29.528Z,100140.01
2022-10-08T17:00:02.350Z,100135.69
2022-10-08T17:02:35.816Z,100136.63
2022-10-08T17:05:08.527Z,100135.38
2022-10-08T17:07:40.699Z,100122.66
2022-10-08T17:10:13.514Z,100120.02
2022-10-08T17:12:46.180Z,100120.02
2022-10-08T17:15:18.638Z,100119.38
2022-10-08T17:17:55.301Z,100119.72
2022-10-08T17:20:25.229Z,100126.13
2022-10-08T17:22:58.163Z,100109.08
2022-10-08T17:25:30.848Z,100123.48
2022-10-08T17:28:03.541Z,100120.84
2022-10-08T17:30:37.834Z,100118.03
2022-10-08T17:33:10.042Z,100110.20
2022-10-08T17:35:42.647Z,100108.60
2022-10-08T17:38:15.576Z,100112.10
2022-10-08T17:40:48.404Z,100104.93
2022-10-08T17:43:20.564Z,100103.06
2022-10-08T17:45:52.732Z,100099.73
2022-10-08T17:48:26.029Z,100100.22
2022-10-08T17:50:59.896Z,100093.25
2022-10-08T17:53:32.966Z,100098.53
2022-10-08T17:56:07.673Z,100092.03
2022-10-08T17:58:40.494Z,100095.41
2022-10-08T18:01:16.312Z,100084.13
2022-10-08T18:03:58.761Z,100083.95
2022-10-08T18:06:32.805Z,100083.86
2022-10-08T18:09:07.765Z,100087.41
2022-10-08T18:11:42.149Z,100075.94
2022-10-08T18:14:14.401Z,100073.00
2022-10-08T18:16:48.505Z,100071.01
2022-10-08T18:19:20.544Z,100079.05
2022-10-08T18:21:52.615Z,100073.55
2022-10-08T18:24:24.906Z,100069.23
2022-10-08T18:26:58.588Z,100064.72
2022-10-08T18:29:30.765Z,100070.18
2022-10-08T18:32:02.841Z,100060.36
2022-10-08T18:34:35.727Z,100070.00
2022-10-08T18:37:07.898Z,100072.52
2022-10-08T18:39:40.014Z,100076.97
2022-10-08T18:42:11.969Z,100084.49
2022-10-08T18:44:44.858Z,100082.53
2022-10-08T18:47:16.973Z,100085.27
2022-10-08T18:49:49.127Z,100084.58
2022-10-08T18:52:22.812Z,100088.27
2022-10-08T18:54:54.944Z,100088.66
2022-10-08T18:57:27.130Z,100085.54
2022-10-08T18:59:59.223Z,100087.80
2022-10-08T19:02:33.283Z,100090.52
2022-10-08T19:05:05.559Z,100088.23
2022-10-08T19:07:37.595Z,100083.91
2022-10-08T19:10:09.943Z,100090.14
2022-10-08T19:12:41.984Z,100089.83
2022-10-08T19:15:13.995Z,100093.50
2022-10-08T19:17:46.283Z,100087.84
2022-10-08T19:20:18.359Z,100087.84
2022-10-08T19:22:50.946Z,100089.73
2022-10-08T19:25:23.038Z,100099.50
2022-10-08T19:27:55.360Z,100100.45
2022-10-08T19:30:32.599Z,100088.22
2022-10-08T19:33:01.317Z,100096.95
2022-10-08T19:35:33.603Z,100096.12
2022-10-08T19:38:05.640Z,100092.05
2022-10-08T19:40:37.553Z,100106.92
2022-10-08T19:43:09.972Z,100107.19
2022-10-08T19:45:42.191Z,100098.79
2022-10-08T19:48:14.155Z,100100.84
2022-10-08T19:50:46.152Z,100098.55
2022-10-08T19:53:18.119Z,100096.74
2022-10-08T19:55:50.590Z,100101.27
2022-10-08T19:58:22.622Z,100100.41
2022-10-08T20:01:09.190Z,100098.06
2022-10-08T20:03:41.198Z,100093.12
2022-10-08T20:06:24.555Z,100096.20
2022-10-08T20:08:56.181Z,100091.97
2022-10-08T20:11:30.062Z,100103.53
2022-10-08T20:14:02.151Z,100102.84
2022-10-08T20:16:36.782Z,100083.73
2022-10-08T20:19:09.715Z,100091.87
2022-10-08T20:21:41.418Z,100102.67
2022-10-08T20:24:15.164Z,100090.55
2022-10-08T20:26:49.213Z,100090.63
2022-10-08T20:29:26.294Z,100093.43
2022-10-08T20:31:57.596Z,100093.34
2022-10-08T20:34:31.685Z,100090.02
2022-10-08T20:37:03.686Z,100087.58
2022-10-08T20:39:35.681Z,100085.89
2022-10-08T20:42:07.875Z,100082.47
2022-10-08T20:44:39.884Z,100078.23
2022-10-08T20:47:12.037Z,100085.19
2022-10-08T20:49:44.070Z,100086.12
2022-10-08T20:52:16.190Z,100081.61
2022-10-08T20:54:48.378Z,100078.15
2022-10-08T20:57:20.549Z,100075.52
2022-10-08T20:59:52.502Z,100081.61
2022-10-08T21:02:24.723Z,100076.18
2022-10-08T21:04:56.891Z,100069.97
2022-10-08T21:07:28.778Z,100078.66
2022-10-08T21:10:01.343Z,100074.13
2022-10-08T21:12:34.504Z,100075.73
2022-10-08T21:15:07.220Z,100073.97
2022-10-08T21:17:39.557Z,100074.83
2022-10-08T21:20:11.792Z,100065.90
2022-10-08T21:22:44.149Z,100067.59
2022-10-08T21:25:16.067Z,100060.47
2022-10-08T21:27:47.996Z,100059.52
2022-10-08T21:30:20.007Z,100058.58
2022-10-08T21:32:52.192Z,100053.89
2022-10-08T21:35:24.053Z,100048.70
2022-10-08T21:37:56.048Z,100050.77
2022-10-08T21:40:27.973Z,100061.37
2022-10-08T21:42:59.929Z,100058.41
2022-10-08T21:45:32.260Z,100055.00
2022-10-08T21:48:04.523Z,100060.10
2022-10-08T21:50:36.515Z,100054.83
2022-10-08T21:53:08.547Z,100042.69
2022-10-08T21:55:40.603Z,100048.82
2022-10-08T21:58:12.670Z,100045.41
2022-10-08T22:00:44.826Z,100034.95
2022-10-08T22:03:21.547Z,100053.39
2022-10-08T22:06:01.830Z,100047.96
2022-10-08T22:08:34.290Z,100042.69
2022-10-08T22:11:07.423Z,100040.06
2022-10-08T22:13:39.578Z,100043.35
2022-10-08T22:16:14.238Z,100041.58
2022-10-08T22:18:46.144Z,100037.34
2022-10-08T22:21:21.235Z,100036.39
2022-10-08T22:23:54.202Z,100033.02
2022-10-08T22:26:29.362Z,100028.74
2022-10-08T22:29:01.813Z,100027.14
2022-10-08T22:31:34.264Z,100020.27
2022-10-08T22:34:06.232Z,100020.27
2022-10-08T22:36:43.605Z,100022.23
2022-10-08T22:39:15.627Z,100016.19
2022-10-08T22:41:47.745Z,100015.61
2022-10-08T22:44:20.031Z,100015.70
2022-10-08T22:46:51.954Z,100014.00
2022-10-08T22:49:23.905Z,100020.30
2022-10-08T22:51:56.059Z,100018.61
2022-10-08T22:54:29.485Z,100012.84
2022-10-08T22:57:01.520Z,100016.22
2022-10-08T22:59:33.499Z,100014.53
2022-10-08T23:02:05.559Z,100004.25
2022-10-08T23:04:37.513Z,100012.15
2022-10-08T23:07:09.662Z,100001.78
2022-10-08T23:09:41.579Z,99995.77
2022-10-08T23:12:13.892Z,100002.80
2022-10-08T23:14:46.719Z,99993.30
2022-10-08T23:17:18.640Z,100002.22
2022-10-08T23:19:50.557Z,99987.53
2022-10-08T23:22:22.650Z,99985.19
2022-10-08T23:24:55.060Z,99996.70
2022-10-08T23:27:27.255Z,99995.02
2022-10-08T23:29:59.412Z,99977.61
2022-10-08T23:32:32.577Z,99978.63
2022-10-08T23:35:04.896Z,99978.72
2022-10-08T23:37:37.334Z,99980.59
2022-10-08T23:40:09.795Z,99978.13
2022-10-08T23:42:41.743Z,99968.88
2022-10-08T23:45:13.728Z,99964.55
2022-10-08T23:47:45.843Z,99974.91
2022-10-08T23:50:18.017Z,99967.34
2022-10-08T23:52:50.423Z,99969.03
2022-10-08T23:55:22.766Z,99961.25
2022-10-08T23:57:54.606Z,99959.45
